Terminal Aerodrome Forecast
Issued by NWS Wilmington, OH

Current Version | Previous Version | Graphics & Text | Print | Product List | Glossary On
Versions: 1 2 3 4 5 6 7 8 9 10 11 12 13 14 15 16 17 18
000
FTUS41 KILN 271752
TAFDAY
TAF
KDAY 271752Z 2718/2818 21006KT P6SM FEW030 BKN250
     FM272100 16006KT P6SM FEW035 BKN100
     FM280300 14005KT 5SM -SHRA BR OVC060
     FM280600 11004KT 4SM -SHRA BR OVC015
     FM280900 04004KT 4SM -SHRA BR OVC008
     FM281100 35007KT 5SM BR VCSH OVC008
     FM281300 34009KT P6SM OVC008
     FM281600 36010KT P6SM OVC014=

USA.gov is the U.S. government's official web portal to all federal, state and local government web resources and services.